createdAt,value
2023-01-09T00:00:52.093Z,1.93
2023-01-09T00:01:52.007Z,1.92
2023-01-09T00:02:52.105Z,1.92
2023-01-09T00:03:52.012Z,1.93
2023-01-09T00:04:52.115Z,1.91
2023-01-09T00:05:51.940Z,1.88
2023-01-09T00:06:52.072Z,1.86
2023-01-09T00:07:51.913Z,1.85
2023-01-09T00:08:52.112Z,1.83
2023-01-09T00:09:51.881Z,1.83
2023-01-09T00:10:51.992Z,1.86
2023-01-09T00:11:51.869Z,1.86
2023-01-09T00:12:51.984Z,1.88
2023-01-09T00:13:51.843Z,1.89
2023-01-09T00:14:54.012Z,1.89
2023-01-09T00:15:51.814Z,1.91
2023-01-09T00:16:52.088Z,1.94
2023-01-09T00:17:51.781Z,1.96
2023-01-09T00:18:51.891Z,1.98
2023-01-09T00:19:51.753Z,1.99
2023-01-09T00:20:51.819Z,1.99
2023-01-09T00:21:51.736Z,1.98
2023-01-09T00:22:51.819Z,1.98
2023-01-09T00:23:51.707Z,2.00
2023-01-09T00:24:51.796Z,2.02
2023-01-09T00:25:51.680Z,2.03
2023-01-09T00:27:12.805Z,2.02
2023-01-09T00:27:51.652Z,2.01
2023-01-09T00:28:51.730Z,2.01
2023-01-09T00:29:51.629Z,1.99
2023-01-09T00:30:51.723Z,1.99
2023-01-09T00:31:51.621Z,2.01
2023-01-09T00:32:51.729Z,2.01
2023-01-09T00:33:51.589Z,2.04
2023-01-09T00:34:51.718Z,2.06
2023-01-09T00:35:51.559Z,2.08
2023-01-09T00:36:51.720Z,2.08
2023-01-09T00:37:51.530Z,2.10
2023-01-09T00:38:51.637Z,2.10
2023-01-09T00:39:51.486Z,2.12
2023-01-09T00:40:51.628Z,2.15
2023-01-09T00:41:51.495Z,2.15
2023-01-09T00:42:51.608Z,2.15
2023-01-09T00:43:51.456Z,2.15
2023-01-09T00:44:51.537Z,2.14
2023-01-09T00:45:51.482Z,2.13
2023-01-09T00:46:51.628Z,2.13
2023-01-09T00:47:51.386Z,2.13
2023-01-09T00:48:51.526Z,2.12
2023-01-09T00:49:51.361Z,2.10
2023-01-09T00:50:51.456Z,2.10
2023-01-09T00:51:51.346Z,2.10
2023-01-09T00:52:51.446Z,2.12
2023-01-09T00:53:51.307Z,2.12
2023-01-09T00:54:51.423Z,2.11
2023-01-09T00:55:51.293Z,2.14
2023-01-09T00:56:51.363Z,2.17
2023-01-09T00:57:51.257Z,2.21
2023-01-09T00:58:51.350Z,2.25
2023-01-09T00:59:51.225Z,2.29
2023-01-09T01:00:51.413Z,2.34
2023-01-09T01:01:51.323Z,2.38
2023-01-09T01:02:53.396Z,2.41
2023-01-09T01:03:51.181Z,2.46
2023-01-09T01:04:51.356Z,2.49
2023-01-09T01:05:51.144Z,2.52
2023-01-09T01:06:51.226Z,2.57
2023-01-09T01:07:51.122Z,2.61
2023-01-09T01:08:52.191Z,2.65
2023-01-09T01:09:51.107Z,2.66
2023-01-09T01:10:51.254Z,2.67
2023-01-09T01:11:51.081Z,2.68
2023-01-09T01:12:51.254Z,2.70
2023-01-09T01:13:51.043Z,2.72
2023-01-09T01:14:51.069Z,2.74
2023-01-09T01:15:51.017Z,2.76
2023-01-09T01:16:51.219Z,2.78
2023-01-09T01:17:50.991Z,2.81
2023-01-09T01:18:51.145Z,2.83
2023-01-09T01:19:50.962Z,2.86
2023-01-09T01:20:53.172Z,2.90
2023-01-09T01:21:50.944Z,2.94
2023-01-09T01:22:51.184Z,2.98
2023-01-09T01:23:50.914Z,3.00
2023-01-09T01:24:50.956Z,3.00
2023-01-09T01:25:50.894Z,3.01
2023-01-09T01:26:50.980Z,3.04
2023-01-09T01:27:50.866Z,3.08
2023-01-09T01:28:50.910Z,3.11
2023-01-09T01:29:50.835Z,3.13
2023-01-09T01:30:51.934Z,3.16
2023-01-09T01:31:50.810Z,3.18
2023-01-09T01:32:50.894Z,3.19
2023-01-09T01:33:50.784Z,3.20
2023-01-09T01:34:50.878Z,3.22
2023-01-09T01:35:50.760Z,3.24
2023-01-09T01:38:00.237Z,2.74
2023-01-09T01:39:00.032Z,2.75
2023-01-09T01:40:00.103Z,2.99
2023-01-09T01:41:00.006Z,3.17
2023-01-09T01:43:09.521Z,2.87
2023-01-09T01:44:09.284Z,2.87
2023-01-09T01:45:09.375Z,3.13
2023-01-09T01:46:09.280Z,3.29
2023-01-09T01:47:09.363Z,3.38
2023-01-09T01:48:09.223Z,3.44
2023-01-09T01:49:09.398Z,3.47
2023-01-09T01:50:09.202Z,3.49
2023-01-09T01:51:09.380Z,3.50
2023-01-09T01:52:09.173Z,3.51
2023-01-09T01:53:10.304Z,3.50
2023-01-09T01:54:09.153Z,3.50
2023-01-09T01:55:09.194Z,3.48
2023-01-09T01:56:09.132Z,3.47
2023-01-09T01:57:09.230Z,3.45
2023-01-09T01:58:09.110Z,3.44
2023-01-09T01:59:09.275Z,3.45
2023-01-09T02:00:09.080Z,3.47
2023-01-09T02:01:09.278Z,3.48
2023-01-09T02:02:09.252Z,3.49
2023-01-09T02:03:09.071Z,3.49
2023-01-09T02:04:09.029Z,3.49
2023-01-09T02:05:09.077Z,3.48
2023-01-09T02:06:08.999Z,3.49
2023-01-09T02:07:09.120Z,3.51
2023-01-09T02:08:08.974Z,3.54
2023-01-09T02:09:10.150Z,3.55
2023-01-09T02:10:08.940Z,3.56
2023-01-09T02:11:08.985Z,3.58
2023-01-09T02:12:08.914Z,3.59
2023-01-09T02:13:09.029Z,3.62
2023-01-09T02:14:08.891Z,3.64
2023-01-09T02:15:10.027Z,3.66
2023-01-09T02:16:08.870Z,3.69
2023-01-09T02:17:08.988Z,3.72
2023-01-09T02:18:08.843Z,3.75
2023-01-09T02:19:09.021Z,3.77
2023-01-09T02:20:08.822Z,3.78
2023-01-09T02:21:08.908Z,3.81
2023-01-09T02:22:08.788Z,3.82
2023-01-09T02:23:08.889Z,3.83
2023-01-09T02:24:08.771Z,3.85
2023-01-09T02:25:08.827Z,3.87
2023-01-09T02:26:08.740Z,3.90
2023-01-09T02:27:10.859Z,3.93
2023-01-09T02:28:08.711Z,3.95
2023-01-09T02:29:08.896Z,3.95
2023-01-09T02:30:08.690Z,3.95
2023-01-09T02:31:10.893Z,3.95
2023-01-09T02:32:08.658Z,3.96
2023-01-09T02:33:08.817Z,3.98
2023-01-09T02:34:08.639Z,3.99
2023-01-09T02:35:08.701Z,4.00
2023-01-09T02:36:08.616Z,4.00
2023-01-09T02:37:09.767Z,3.99
2023-01-09T02:38:08.578Z,3.98
2023-01-09T02:39:08.630Z,4.00
2023-01-09T02:40:08.572Z,4.02
2023-01-09T02:41:08.611Z,4.05
2023-01-09T02:42:08.533Z,4.09
2023-01-09T02:43:10.652Z,4.13
2023-01-09T02:44:08.495Z,4.16
2023-01-09T02:45:08.634Z,4.18
2023-01-09T02:46:08.534Z,4.20
2023-01-09T02:47:08.614Z,4.23
2023-01-09T02:48:08.446Z,4.28
2023-01-09T02:49:09.475Z,4.35
2023-01-09T02:50:08.437Z,4.43
2023-01-09T02:51:08.539Z,4.51
2023-01-09T02:52:08.396Z,4.58
2023-01-09T02:53:08.525Z,4.66
2023-01-09T02:54:08.368Z,4.71
2023-01-09T02:55:08.456Z,4.78
2023-01-09T02:56:08.346Z,4.85
2023-01-09T02:57:08.556Z,4.91
2023-01-09T02:58:08.329Z,4.95
2023-01-09T02:59:08.428Z,4.98
2023-01-09T03:00:08.295Z,5.02
2023-01-09T03:01:08.466Z,5.05
2023-01-09T03:02:08.265Z,5.07
2023-01-09T03:03:08.505Z,5.09
2023-01-09T03:04:08.243Z,5.10
2023-01-09T03:05:08.335Z,5.13
2023-01-09T03:06:08.204Z,5.15
2023-01-09T03:07:08.264Z,5.17
2023-01-09T03:08:08.187Z,5.19
2023-01-09T03:09:08.258Z,5.21
2023-01-09T03:10:08.166Z,5.25
2023-01-09T03:11:08.238Z,5.28
2023-01-09T03:12:08.140Z,5.32
2023-01-09T03:13:09.222Z,5.35
2023-01-09T03:14:08.105Z,5.39
2023-01-09T03:15:08.265Z,5.43
2023-01-09T03:16:08.113Z,5.46
2023-01-09T03:17:10.227Z,5.50
2023-01-09T03:18:08.055Z,5.53
2023-01-09T03:19:08.188Z,5.55
2023-01-09T03:20:08.043Z,5.58
2023-01-09T03:21:08.174Z,5.61
2023-01-09T03:22:08.003Z,5.65
2023-01-09T03:23:08.156Z,5.69
2023-01-09T03:24:07.973Z,5.73
2023-01-09T03:25:08.084Z,5.78
2023-01-09T03:26:07.954Z,5.82
2023-01-09T03:27:08.075Z,5.86
2023-01-09T03:28:07.944Z,5.88
2023-01-09T03:30:17.440Z,5.49
2023-01-09T03:31:17.266Z,5.50
2023-01-09T03:32:17.333Z,5.75
2023-01-09T03:33:17.202Z,5.91
2023-01-09T03:34:19.413Z,6.02
2023-01-09T03:35:17.171Z,6.11
2023-01-09T03:36:17.343Z,6.17
2023-01-09T03:37:17.152Z,6.23
2023-01-09T03:38:17.339Z,6.28
2023-01-09T03:39:17.121Z,6.33
2023-01-09T03:40:17.214Z,6.37
2023-01-09T03:41:17.104Z,6.41
2023-01-09T03:42:17.143Z,6.45
2023-01-09T03:43:17.083Z,6.48
2023-01-09T03:44:17.232Z,6.49
2023-01-09T03:45:17.051Z,6.50
2023-01-09T03:46:39.122Z,6.50
2023-01-09T03:47:17.025Z,6.51
2023-01-09T03:48:17.153Z,6.54
2023-01-09T03:49:16.993Z,6.56
2023-01-09T03:50:20.329Z,6.57
2023-01-09T03:51:16.971Z,6.58
2023-01-09T03:52:17.024Z,6.59
2023-01-09T03:53:16.933Z,6.59
2023-01-09T03:54:17.065Z,6.61
2023-01-09T03:55:16.916Z,6.63
2023-01-09T03:56:17.052Z,6.64
2023-01-09T03:57:16.881Z,6.66
2023-01-09T03:58:16.933Z,6.68
2023-01-09T03:59:16.860Z,6.67
2023-01-09T04:00:16.993Z,6.68
2023-01-09T04:01:16.911Z,6.71
2023-01-09T04:02:18.066Z,6.78
2023-01-09T04:03:16.815Z,6.81
2023-01-09T04:04:16.940Z,6.84
2023-01-09T04:05:16.786Z,6.84
2023-01-09T04:06:16.986Z,6.83
2023-01-09T04:07:16.750Z,6.81
2023-01-09T04:08:18.802Z,6.81
2023-01-09T04:09:16.724Z,6.82
2023-01-09T04:10:16.841Z,6.81
2023-01-09T04:11:16.701Z,6.79
2023-01-09T04:12:16.771Z,6.78
2023-01-09T04:13:16.675Z,6.77
2023-01-09T04:14:20.038Z,6.76
2023-01-09T04:15:16.649Z,6.76
2023-01-09T04:16:16.870Z,6.77
2023-01-09T04:17:16.625Z,6.78
2023-01-09T04:18:16.688Z,6.79
2023-01-09T04:19:16.601Z,6.80
2023-01-09T04:20:16.619Z,6.80
2023-01-09T04:21:16.571Z,6.80
2023-01-09T04:22:16.587Z,6.80
2023-01-09T04:23:16.553Z,6.81
2023-01-09T04:24:16.601Z,6.82
2023-01-09T04:25:16.532Z,6.83
2023-01-09T04:26:16.571Z,6.83
2023-01-09T04:27:16.492Z,6.83
2023-01-09T04:28:16.562Z,6.85
2023-01-09T04:29:16.469Z,6.85
2023-01-09T04:30:16.592Z,6.85
2023-01-09T04:31:16.456Z,6.88
2023-01-09T04:32:16.587Z,6.89
2023-01-09T04:33:16.416Z,6.89
2023-01-09T04:34:17.599Z,6.90
2023-01-09T04:35:16.383Z,6.92
2023-01-09T04:36:16.491Z,6.94
2023-01-09T04:37:16.354Z,6.96
2023-01-09T04:38:16.448Z,6.98
2023-01-09T04:39:16.337Z,7.00
2023-01-09T04:40:16.471Z,7.02
2023-01-09T04:41:16.300Z,7.04
2023-01-09T04:42:17.441Z,7.07
2023-01-09T04:43:16.277Z,7.09
2023-01-09T04:44:16.506Z,7.12
2023-01-09T04:45:16.258Z,7.13
2023-01-09T04:46:16.422Z,7.14
2023-01-09T04:47:16.224Z,7.14
2023-01-09T04:48:18.408Z,7.14
2023-01-09T04:49:16.228Z,7.13
2023-01-09T04:50:16.309Z,7.14
2023-01-09T04:51:16.170Z,7.14
2023-01-09T04:52:16.280Z,7.15
2023-01-09T04:53:16.138Z,7.16
2023-01-09T04:54:16.219Z,7.18
2023-01-09T04:55:16.121Z,7.18
2023-01-09T04:56:16.167Z,7.17
2023-01-09T04:57:16.091Z,7.16
2023-01-09T04:58:16.188Z,7.16
2023-01-09T04:59:16.069Z,7.17
2023-01-09T05:00:16.229Z,7.18
2023-01-09T05:01:16.145Z,7.18
2023-01-09T05:02:16.251Z,7.19
2023-01-09T05:03:16.009Z,7.19
2023-01-09T05:04:16.113Z,7.21
2023-01-09T05:05:15.990Z,7.22
2023-01-09T05:06:16.029Z,7.21
2023-01-09T05:07:15.958Z,7.21
2023-01-09T05:08:18.067Z,7.21
2023-01-09T05:09:15.941Z,7.20
2023-01-09T05:10:16.100Z,7.22
2023-01-09T05:11:15.896Z,7.23
2023-01-09T05:12:15.928Z,7.24
2023-01-09T05:13:15.868Z,7.26
2023-01-09T05:14:16.035Z,7.28
2023-01-09T05:15:15.848Z,7.31
2023-01-09T05:16:16.998Z,7.31
2023-01-09T05:17:15.819Z,7.32
2023-01-09T05:18:15.977Z,7.33
2023-01-09T05:19:15.966Z,7.33
2023-01-09T05:20:15.835Z,7.33
2023-01-09T05:21:15.772Z,7.34
2023-01-09T05:22:37.935Z,7.36
2023-01-09T05:23:15.745Z,7.37
2023-01-09T05:24:15.847Z,7.39
2023-01-09T05:25:15.728Z,7.40
2023-01-09T05:26:15.773Z,7.41
2023-01-09T05:27:15.687Z,7.41
2023-01-09T05:28:15.754Z,7.42
2023-01-09T05:29:15.668Z,7.43
2023-01-09T05:30:18.134Z,7.45
2023-01-09T05:31:15.679Z,7.46
2023-01-09T05:32:16.748Z,7.46
2023-01-09T05:33:15.733Z,7.46
2023-01-09T05:34:15.746Z,7.47
2023-01-09T05:35:15.588Z,7.47
2023-01-09T05:36:15.657Z,7.48
2023-01-09T05:37:15.558Z,7.47
2023-01-09T05:38:15.756Z,7.48
2023-01-09T05:39:15.529Z,7.49
2023-01-09T05:40:16.560Z,7.50
2023-01-09T05:41:15.506Z,7.50
2023-01-09T05:42:15.564Z,7.51
2023-01-09T05:43:15.465Z,7.50
2023-01-09T05:44:16.575Z,7.50
2023-01-09T05:45:15.436Z,7.50
2023-01-09T05:46:15.538Z,7.52
2023-01-09T05:47:15.424Z,7.53
2023-01-09T05:48:15.575Z,7.56
2023-01-09T05:49:15.383Z,7.58
2023-01-09T05:50:18.813Z,7.59
2023-01-09T05:51:15.366Z,7.59
2023-01-09T05:52:15.434Z,7.61
2023-01-09T05:53:15.339Z,7.63
2023-01-09T05:54:15.477Z,7.65
2023-01-09T05:55:15.310Z,7.67
2023-01-09T05:56:16.476Z,7.69
2023-01-09T05:57:15.301Z,7.74
2023-01-09T05:58:15.443Z,7.77
2023-01-09T05:59:15.263Z,7.79
2023-01-09T06:00:15.394Z,7.82
2023-01-09T06:01:15.319Z,7.83
2023-01-09T06:02:16.579Z,7.86
2023-01-09T06:03:15.250Z,7.89
2023-01-09T06:04:15.350Z,7.90
2023-01-09T06:05:15.175Z,7.91
2023-01-09T06:06:15.283Z,7.93
2023-01-09T06:07:20.374Z,7.95
2023-01-09T06:08:16.176Z,7.96
2023-01-09T06:09:15.393Z,7.97
2023-01-09T06:10:16.097Z,7.96
2023-01-09T06:11:15.124Z,7.96
2023-01-09T06:12:15.078Z,7.95
2023-01-09T06:13:15.159Z,7.95
2023-01-09T06:14:15.077Z,7.95
2023-01-09T06:15:15.217Z,7.96
2023-01-09T06:16:15.055Z,7.96
2023-01-09T06:17:17.240Z,7.98
2023-01-09T06:18:15.004Z,8.02
2023-01-09T06:19:15.161Z,8.06
2023-01-09T06:20:15.014Z,8.08
2023-01-09T06:21:15.137Z,8.08
2023-01-09T06:22:14.941Z,8.10
2023-01-09T06:23:15.033Z,8.11
2023-01-09T06:24:14.912Z,8.11
2023-01-09T06:25:14.962Z,8.10
2023-01-09T06:26:14.925Z,8.09
2023-01-09T06:27:15.007Z,8.09
2023-01-09T06:28:14.861Z,8.08
2023-01-09T06:29:15.032Z,8.08
2023-01-09T06:30:14.845Z,8.08
2023-01-09T06:31:14.969Z,8.08
2023-01-09T06:32:14.846Z,8.09
2023-01-09T06:33:14.912Z,8.09
2023-01-09T06:34:14.791Z,8.08
2023-01-09T06:35:14.843Z,8.07
2023-01-09T06:36:14.753Z,8.07
2023-01-09T06:37:35.920Z,8.07
2023-01-09T06:38:14.755Z,8.09
2023-01-09T06:39:14.913Z,8.10
2023-01-09T06:40:14.701Z,8.12
2023-01-09T06:41:16.841Z,8.15
2023-01-09T06:42:14.688Z,8.18
2023-01-09T06:43:15.761Z,8.18
2023-01-09T06:44:14.642Z,8.17
2023-01-09T06:45:14.758Z,8.16
2023-01-09T06:46:14.679Z,8.16
2023-01-09T06:47:14.750Z,8.15
2023-01-09T06:48:14.592Z,8.15
2023-01-09T06:49:14.641Z,8.16
2023-01-09T06:50:14.578Z,8.15
2023-01-09T06:51:14.623Z,8.16
2023-01-09T06:52:14.561Z,8.19
2023-01-09T06:53:14.663Z,8.22
2023-01-09T06:54:14.524Z,8.24
2023-01-09T06:55:14.653Z,8.26
2023-01-09T06:56:14.490Z,8.26
2023-01-09T06:57:14.645Z,8.25
2023-01-09T06:58:14.461Z,8.26
2023-01-09T06:59:14.601Z,8.27
2023-01-09T07:00:14.455Z,8.28
2023-01-09T07:01:14.616Z,8.28
2023-01-09T07:02:14.473Z,8.29
2023-01-09T07:03:14.541Z,8.30
2023-01-09T07:04:14.428Z,8.30
2023-01-09T07:05:14.511Z,8.28
2023-01-09T07:06:14.385Z,8.28
2023-01-09T07:07:14.567Z,8.28
2023-01-09T07:08:14.332Z,8.29
2023-01-09T07:09:14.441Z,8.30
2023-01-09T07:10:14.304Z,8.32
2023-01-09T07:11:16.430Z,8.33
2023-01-09T07:12:14.280Z,8.36
2023-01-09T07:13:14.460Z,8.37
2023-01-09T07:14:14.259Z,8.37
2023-01-09T07:15:14.351Z,8.34
2023-01-09T07:16:14.288Z,8.34
2023-01-09T07:17:14.306Z,8.34
2023-01-09T07:18:14.204Z,8.34
2023-01-09T07:19:14.273Z,8.36
2023-01-09T07:20:14.178Z,8.36
2023-01-09T07:21:14.262Z,8.39
2023-01-09T07:22:14.140Z,8.42
2023-01-09T07:23:14.235Z,8.46
2023-01-09T07:24:14.136Z,8.48
2023-01-09T07:25:14.285Z,8.51
2023-01-09T07:26:14.091Z,8.54
2023-01-09T07:27:14.160Z,8.56
2023-01-09T07:28:14.060Z,8.60
2023-01-09T07:29:14.236Z,8.66
2023-01-09T07:30:14.059Z,8.69
2023-01-09T07:31:14.224Z,8.69
2023-01-09T07:32:14.020Z,8.68
2023-01-09T07:33:14.219Z,8.68
2023-01-09T07:34:14.001Z,8.68
2023-01-09T07:35:14.113Z,8.68
2023-01-09T07:36:13.963Z,8.67
2023-01-09T07:37:14.092Z,8.66
2023-01-09T07:38:13.939Z,8.66
2023-01-09T07:39:14.078Z,8.65
2023-01-09T07:40:13.909Z,8.64
2023-01-09T07:41:16.099Z,8.65
2023-01-09T07:42:13.900Z,8.66
2023-01-09T07:43:13.989Z,8.68
2023-01-09T07:44:13.860Z,8.68
2023-01-09T07:45:13.887Z,8.69
2023-01-09T07:46:13.848Z,8.69
2023-01-09T07:47:13.913Z,8.67
2023-01-09T07:48:13.799Z,8.67
2023-01-09T07:49:13.901Z,8.67
2023-01-09T07:50:13.771Z,8.66
2023-01-09T07:51:13.896Z,8.67
2023-01-09T07:52:13.750Z,8.67
2023-01-09T07:53:36.953Z,8.68
2023-01-09T07:54:13.738Z,8.69
2023-01-09T07:55:15.036Z,8.70
2023-01-09T07:56:13.698Z,8.72
2023-01-09T07:57:13.801Z,8.76
2023-01-09T07:58:13.693Z,8.81
2023-01-09T07:59:13.840Z,8.85
2023-01-09T08:00:13.665Z,8.87
2023-01-09T08:01:13.918Z,8.87
2023-01-09T08:02:13.694Z,8.87
2023-01-09T08:03:13.726Z,8.89
2023-01-09T08:04:13.612Z,8.89
2023-01-09T08:05:13.642Z,8.88
2023-01-09T08:06:13.578Z,8.86
2023-01-09T08:07:13.710Z,8.85
2023-01-09T08:08:13.540Z,8.85
2023-01-09T08:09:13.641Z,8.84
2023-01-09T08:10:13.521Z,8.83
2023-01-09T08:11:13.622Z,8.81
2023-01-09T08:12:13.488Z,8.81
2023-01-09T08:13:13.619Z,8.81
2023-01-09T08:14:13.486Z,8.82
2023-01-09T08:15:13.480Z,8.81
2023-01-09T08:16:13.478Z,8.81
2023-01-09T08:17:13.483Z,8.79
2023-01-09T08:18:13.429Z,8.77
2023-01-09T08:19:13.447Z,8.76
2023-01-09T08:20:13.389Z,8.75
2023-01-09T08:21:13.516Z,8.75
2023-01-09T08:22:13.358Z,8.78
2023-01-09T08:23:13.447Z,8.80
2023-01-09T08:24:13.336Z,8.81
2023-01-09T08:25:13.411Z,8.81
2023-01-09T08:26:13.303Z,8.81
2023-01-09T08:27:34.348Z,8.78
2023-01-09T08:28:13.293Z,8.78
2023-01-09T08:29:13.376Z,8.77
2023-01-09T08:30:13.261Z,8.77
2023-01-09T08:31:13.446Z,8.77
2023-01-09T08:32:13.228Z,8.78
2023-01-09T08:33:13.305Z,8.79
2023-01-09T08:34:13.206Z,8.78
2023-01-09T08:35:13.327Z,8.78
2023-01-09T08:36:13.227Z,8.79
2023-01-09T08:37:13.295Z,8.82
2023-01-09T08:38:13.150Z,8.84
2023-01-09T08:39:14.158Z,8.85
2023-01-09T08:40:13.131Z,8.86
2023-01-09T08:41:13.148Z,8.86
2023-01-09T08:42:13.097Z,8.85
2023-01-09T08:43:13.215Z,8.86
2023-01-09T08:44:13.082Z,8.87
2023-01-09T08:45:13.079Z,8.87
2023-01-09T08:46:13.078Z,8.87
2023-01-09T08:47:13.099Z,8.86
2023-01-09T08:48:13.017Z,8.87
2023-01-09T08:49:13.069Z,8.89
2023-01-09T08:50:12.998Z,8.89
2023-01-09T08:51:13.053Z,8.90
2023-01-09T08:52:12.989Z,8.90
2023-01-09T08:53:14.110Z,8.89
2023-01-09T08:54:12.938Z,8.89
2023-01-09T08:55:13.081Z,8.89
2023-01-09T08:56:12.913Z,8.89
2023-01-09T08:57:13.059Z,8.87
2023-01-09T08:58:12.889Z,8.85
2023-01-09T08:59:12.968Z,8.84
2023-01-09T09:00:12.857Z,8.84
2023-01-09T09:01:12.970Z,8.84
2023-01-09T09:02:12.838Z,8.85
2023-01-09T09:03:12.910Z,8.87
2023-01-09T09:04:12.833Z,8.89
2023-01-09T09:05:12.807Z,8.90
2023-01-09T09:06:12.822Z,8.89
2023-01-09T09:07:12.883Z,8.88
2023-01-09T09:08:12.757Z,8.87
2023-01-09T09:09:12.851Z,8.84
2023-01-09T09:10:12.738Z,8.83
2023-01-09T09:11:12.760Z,8.81
2023-01-09T09:12:12.698Z,8.79
2023-01-09T09:13:12.830Z,8.78
2023-01-09T09:14:12.673Z,8.77
2023-01-09T09:15:12.687Z,8.77
2023-01-09T09:16:12.670Z,8.77
2023-01-09T09:17:12.705Z,8.78
2023-01-09T09:18:12.625Z,8.79
2023-01-09T09:19:12.676Z,8.79
2023-01-09T09:20:12.597Z,8.82
2023-01-09T09:21:12.702Z,8.83
2023-01-09T09:22:12.890Z,8.85
2023-01-09T09:23:12.740Z,8.87
2023-01-09T09:24:12.545Z,8.85
2023-01-09T09:25:12.624Z,8.77
2023-01-09T09:26:12.567Z,8.67
2023-01-09T09:27:12.597Z,8.51
2023-01-09T09:28:12.495Z,8.35
2023-01-09T09:29:13.557Z,8.17
2023-01-09T09:30:12.467Z,7.99
2023-01-09T09:31:12.639Z,7.81
2023-01-09T09:32:12.459Z,7.69
2023-01-09T09:33:12.614Z,7.57
2023-01-09T09:34:12.417Z,7.46
2023-01-09T09:35:12.500Z,7.37
2023-01-09T09:36:12.404Z,7.30
2023-01-09T09:37:13.508Z,7.25
2023-01-09T09:38:12.357Z,7.20
2023-01-09T09:39:12.518Z,7.18
2023-01-09T09:40:18.403Z,7.14
2023-01-09T09:41:13.459Z,7.12
2023-01-09T09:42:12.431Z,7.08
2023-01-09T09:43:12.307Z,7.07
2023-01-09T09:44:12.455Z,7.04
2023-01-09T09:45:12.272Z,7.00
2023-01-09T09:46:33.410Z,6.99
2023-01-09T09:47:12.242Z,6.98
2023-01-09T09:48:12.365Z,6.97
2023-01-09T09:49:12.249Z,6.97
2023-01-09T09:50:12.257Z,6.97
2023-01-09T09:51:12.186Z,6.96
2023-01-09T09:52:12.322Z,6.96
2023-01-09T09:53:12.156Z,6.97
2023-01-09T09:54:14.116Z,6.95
2023-01-09T09:55:12.150Z,6.94
2023-01-09T09:56:12.271Z,6.91
2023-01-09T09:57:12.095Z,6.88
2023-01-09T09:58:12.176Z,6.85
2023-01-09T09:59:12.084Z,6.84
2023-01-09T10:00:12.096Z,6.83
2023-01-09T10:01:12.085Z,6.82
2023-01-09T10:02:12.178Z,6.82
2023-01-09T10:03:12.116Z,6.85
2023-01-09T10:04:12.120Z,6.89
2023-01-09T10:05:11.995Z,6.93
2023-01-09T10:06:12.052Z,6.99
2023-01-09T10:07:11.986Z,7.05
2023-01-09T10:08:16.061Z,7.10
2023-01-09T10:09:11.952Z,7.14
2023-01-09T10:10:12.068Z,7.20
2023-01-09T10:11:11.917Z,7.24
2023-01-09T10:12:12.046Z,7.28
2023-01-09T10:13:11.966Z,7.29
2023-01-09T10:14:23.366Z,7.30
2023-01-09T10:15:12.863Z,7.33
2023-01-09T10:16:14.052Z,7.36
2023-01-09T10:17:11.834Z,7.36
2023-01-09T10:18:11.952Z,7.36
2023-01-09T10:19:11.826Z,7.35
2023-01-09T10:20:11.885Z,7.34
2023-01-09T10:21:11.817Z,7.32
2023-01-09T10:22:12.949Z,7.31
2023-01-09T10:23:11.934Z,7.29
2023-01-09T10:24:32.876Z,7.28
2023-01-09T10:25:11.725Z,7.27
2023-01-09T10:26:11.806Z,7.27
2023-01-09T10:27:11.695Z,7.26
2023-01-09T10:28:13.826Z,7.26
2023-01-09T10:29:11.676Z,7.25
2023-01-09T10:30:11.854Z,7.26
2023-01-09T10:31:11.752Z,7.26
2023-01-09T10:32:11.803Z,7.27
2023-01-09T10:33:11.641Z,7.29
2023-01-09T10:34:11.625Z,7.33
2023-01-09T10:35:11.607Z,7.34
2023-01-09T10:36:12.113Z,7.34
2023-01-09T10:37:11.649Z,7.34
2023-01-09T10:38:11.702Z,7.35
2023-01-09T10:39:11.557Z,7.34
2023-01-09T10:40:11.633Z,7.32
2023-01-09T10:41:11.516Z,7.31
2023-01-09T10:42:11.824Z,7.31
2023-01-09T10:43:11.499Z,7.32
2023-01-09T10:44:11.621Z,7.34
2023-01-09T10:45:11.464Z,7.36
2023-01-09T10:46:11.565Z,7.37
2023-01-09T10:47:11.436Z,7.39
2023-01-09T10:48:11.525Z,7.42
2023-01-09T10:49:11.410Z,7.43
2023-01-09T10:50:11.515Z,7.43
2023-01-09T10:51:11.375Z,7.43
2023-01-09T10:52:11.431Z,7.44
2023-01-09T10:53:11.351Z,7.43
2023-01-09T10:54:11.455Z,7.42
2023-01-09T10:55:11.333Z,7.40
2023-01-09T10:56:12.441Z,7.40
2023-01-09T10:57:11.292Z,7.41
2023-01-09T10:58:11.374Z,7.41
2023-01-09T10:59:11.266Z,7.42
2023-01-09T11:00:11.344Z,7.44
2023-01-09T11:01:11.258Z,7.45
2023-01-09T11:02:11.344Z,7.45
2023-01-09T11:03:11.244Z,7.41
2023-01-09T11:04:11.361Z,7.41
2023-01-09T11:05:11.199Z,7.39
2023-01-09T11:06:11.344Z,7.38
2023-01-09T11:07:11.162Z,7.39
2023-01-09T11:08:32.310Z,7.39
2023-01-09T11:09:11.133Z,7.40
2023-01-09T11:10:11.274Z,7.39
2023-01-09T11:11:11.121Z,7.38
2023-01-09T11:12:11.246Z,7.38
2023-01-09T11:13:11.072Z,7.38
2023-01-09T11:14:13.235Z,7.39
2023-01-09T11:15:11.052Z,7.41
2023-01-09T11:16:11.245Z,7.39
2023-01-09T11:17:11.033Z,7.41
2023-01-09T11:18:12.182Z,7.42
2023-01-09T11:19:11.004Z,7.42
2023-01-09T11:20:13.476Z,7.43
2023-01-09T11:21:10.972Z,7.43
2023-01-09T11:22:11.053Z,7.44
2023-01-09T11:23:10.945Z,7.44
2023-01-09T11:24:12.029Z,7.44
2023-01-09T11:25:10.942Z,7.45
2023-01-09T11:26:11.149Z,7.47
2023-01-09T11:27:10.902Z,7.50
2023-01-09T11:28:11.091Z,7.49
2023-01-09T11:29:10.947Z,7.49
2023-01-09T11:30:10.971Z,7.49
2023-01-09T11:31:10.874Z,7.48
2023-01-09T11:32:10.953Z,7.48
2023-01-09T11:33:10.814Z,7.47
2023-01-09T11:34:10.889Z,7.49
2023-01-09T11:35:10.792Z,7.49
2023-01-09T11:36:11.185Z,7.50
2023-01-09T11:37:10.793Z,7.50
2023-01-09T11:38:10.972Z,7.53
2023-01-09T11:39:10.755Z,7.57
2023-01-09T11:40:10.800Z,7.60
2023-01-09T11:41:10.702Z,7.60
2023-01-09T11:42:11.829Z,7.58
2023-01-09T11:43:10.697Z,7.58
2023-01-09T11:44:10.763Z,7.57
2023-01-09T11:45:10.690Z,7.54
2023-01-09T11:46:10.810Z,7.51
2023-01-09T11:47:10.630Z,7.49
2023-01-09T11:48:10.688Z,7.48
2023-01-09T11:49:10.601Z,7.50
2023-01-09T11:50:10.670Z,7.49
2023-01-09T11:51:10.571Z,7.49
2023-01-09T11:52:10.705Z,7.50
2023-01-09T11:53:10.541Z,7.53
2023-01-09T11:54:10.709Z,7.54
2023-01-09T11:55:10.536Z,7.56
2023-01-09T11:56:10.679Z,7.57
2023-01-09T11:57:10.526Z,7.59
2023-01-09T11:58:10.610Z,7.60
2023-01-09T11:59:10.470Z,7.60
2023-01-09T12:00:10.763Z,7.59
2023-01-09T12:01:10.441Z,7.59
2023-01-09T12:02:10.624Z,7.58
2023-01-09T12:03:10.461Z,7.59
2023-01-09T12:04:10.523Z,7.60
2023-01-09T12:05:10.392Z,7.63
2023-01-09T12:06:10.499Z,7.65
2023-01-09T12:07:10.365Z,7.66
2023-01-09T12:08:10.505Z,7.67
2023-01-09T12:09:10.337Z,7.67
2023-01-09T12:10:10.437Z,7.69
2023-01-09T12:11:10.310Z,7.70
2023-01-09T12:12:10.463Z,7.72
2023-01-09T12:13:10.276Z,7.74
2023-01-09T12:14:10.400Z,7.75
2023-01-09T12:15:10.302Z,7.77
2023-01-09T12:16:11.145Z,7.78
2023-01-09T12:17:10.232Z,7.80
2023-01-09T12:18:10.309Z,7.81
2023-01-09T12:19:10.198Z,7.84
2023-01-09T12:20:10.318Z,7.87
2023-01-09T12:21:10.177Z,7.89
2023-01-09T12:22:10.329Z,7.92
2023-01-09T12:23:10.141Z,7.95
2023-01-09T12:24:10.321Z,7.97
2023-01-09T12:25:10.119Z,7.96
2023-01-09T12:26:31.253Z,7.95
2023-01-09T12:27:10.132Z,7.93
2023-01-09T12:28:10.235Z,7.89
2023-01-09T12:29:10.057Z,7.87
2023-01-09T12:30:10.230Z,7.88
2023-01-09T12:31:10.029Z,7.88
2023-01-09T12:32:10.256Z,7.90
2023-01-09T12:33:10.028Z,7.91
2023-01-09T12:34:32.189Z,7.93
2023-01-09T12:35:09.987Z,7.94
2023-01-09T12:36:10.144Z,7.94
2023-01-09T12:37:11.622Z,7.92
2023-01-09T12:38:10.119Z,7.90
2023-01-09T12:39:09.932Z,7.91
2023-01-09T12:40:10.048Z,7.90
2023-01-09T12:41:09.911Z,7.90
2023-01-09T12:42:10.031Z,7.90
2023-01-09T12:43:09.945Z,7.91
2023-01-09T12:44:09.924Z,7.92
2023-01-09T12:45:09.847Z,7.94
2023-01-09T12:46:10.000Z,7.93
2023-01-09T12:47:09.826Z,7.93
2023-01-09T12:48:09.955Z,7.93
2023-01-09T12:49:09.804Z,7.95
2023-01-09T12:50:09.946Z,7.97
2023-01-09T12:51:09.783Z,7.99
2023-01-09T12:52:10.889Z,8.00
2023-01-09T12:53:09.749Z,8.00
2023-01-09T12:54:09.856Z,8.00
2023-01-09T12:55:09.724Z,8.01
2023-01-09T12:56:09.875Z,8.01
2023-01-09T12:57:09.703Z,8.00
2023-01-09T12:58:10.791Z,8.01
2023-01-09T12:59:09.674Z,8.03
2023-01-09T13:00:09.857Z,8.02
2023-01-09T13:01:09.691Z,8.01
2023-01-09T13:02:11.758Z,8.02
2023-01-09T13:03:12.875Z,8.02
2023-01-09T13:04:09.676Z,8.03
2023-01-09T13:05:09.587Z,8.02
2023-01-09T13:06:09.759Z,8.02
2023-01-09T13:07:09.571Z,8.02
2023-01-09T13:08:11.742Z,8.03
2023-01-09T13:09:09.546Z,8.07
2023-01-09T13:10:09.703Z,8.09
2023-01-09T13:11:19.391Z,8.09
2023-01-09T13:12:10.528Z,8.08
2023-01-09T13:13:09.676Z,8.07
2023-01-09T13:14:09.471Z,8.07
2023-01-09T13:15:09.628Z,8.07
2023-01-09T13:16:09.457Z,8.08
2023-01-09T13:17:09.559Z,8.09
2023-01-09T13:18:09.429Z,8.11
2023-01-09T13:19:09.440Z,8.12
2023-01-09T13:20:09.386Z,8.12
2023-01-09T13:21:09.591Z,8.13
2023-01-09T13:22:09.375Z,8.16